Time;durP1;ratioP1;P1;durP2;ratioP2;P2;SDS_P1;SDS_P2;PMS_P1;PMS_P2;Temp;Humidity;BMP_temperature;BMP_pressure;BME280_temperature;BME280_humidity;BME280_pressure;Samples;Min_cycle;Max_cycle;Signal;HPM_P1;HPM_P2
2022/06/21 00:00:45;;;;;;;21.02;5.10;;;19.70;99.90;;;;;;4989973;28;20018;-55
2022/06/21 00:03:15;;;;;;;20.08;5.55;;;20.20;99.90;;;;;;4989961;28;20030;-54
2022/06/21 00:05:44;;;;;;;19.05;4.80;;;20.70;99.90;;;;;;4991881;28;20019;-55
2022/06/21 00:08:21;;;;;;;19.13;4.97;;;21.00;99.90;;;;;;4992719;28;20423;-51
2022/06/21 00:10:47;;;;;;;19.33;4.53;;;20.40;99.90;;;;;;4990357;28;20026;-55
2022/06/21 00:13:17;;;;;;;17.85;4.88;;;20.70;99.90;;;;;;4979588;28;20065;-53
2022/06/21 00:15:44;;;;;;;18.73;4.85;;;20.30;99.90;;;;;;4984946;28;20033;-54
2022/06/21 00:18:16;;;;;;;18.48;5.20;;;20.30;99.90;;;;;;4989780;28;20444;-56
2022/06/21 00:20:43;;;;;;;21.55;5.25;;;20.40;99.90;;;;;;4991432;28;20022;-50
2022/06/21 00:23:14;;;;;;;14.80;4.53;;;19.90;99.90;;;;;;4991809;28;20037;-54
2022/06/21 00:25:41;;;;;;;29.98;5.20;;;20.10;99.90;;;;;;4990223;28;20050;-56
2022/06/21 00:28:07;;;;;;;17.45;4.18;;;19.90;99.90;;;;;;4989073;28;20045;-55
2022/06/21 00:30:33;;;;;;;23.13;5.10;;;19.90;99.90;;;;;;4989227;28;20027;-55
2022/06/21 00:32:59;;;;;;;20.45;4.32;;;19.80;99.90;;;;;;4978816;28;20034;-55
2022/06/21 00:35:26;;;;;;;24.25;5.05;;;19.50;99.90;;;;;;4992309;28;20077;-56
2022/06/21 00:37:53;;;;;;;18.05;4.85;;;19.40;99.90;;;;;;4990163;28;20033;-51
2022/06/21 00:40:26;;;;;;;23.75;5.07;;;19.60;99.90;;;;;;4989269;28;20065;-55
2022/06/21 00:43:03;;;;;;;20.20;5.22;;;20.00;99.90;;;;;;4989043;28;20022;-54
2022/06/21 00:45:33;;;;;;;23.45;4.75;;;19.60;99.90;;;;;;4989006;28;20133;-55
2022/06/21 00:48:15;;;;;;;20.30;5.22;;;19.40;99.90;;;;;;4988908;28;20029;-55
2022/06/21 00:50:45;;;;;;;18.17;4.60;;;19.50;99.90;;;;;;4991159;28;20054;-55
2022/06/21 00:53:17;;;;;;;24.08;5.30;;;20.00;99.90;;;;;;4991643;28;20391;-55
2022/06/21 00:56:06;;;;;;;14.98;4.90;;;19.50;99.90;;;;;;4989519;28;20064;-55
2022/06/21 00:58:31;;;;;;;20.77;5.13;;;19.70;99.90;;;;;;4989611;28;20092;-55
2022/06/21 01:01:03;;;;;;;21.58;4.50;;;19.50;99.90;;;;;;4988892;28;20487;-53
2022/06/21 01:03:34;;;;;;;16.95;5.18;;;19.10;99.90;;;;;;4988561;28;20109;-55
2022/06/21 01:06:05;;;;;;;18.23;4.75;;;19.40;99.90;;;;;;4988489;28;20373;-50
2022/06/21 01:08:35;;;;;;;22.05;4.80;;;18.90;99.90;;;;;;4993200;28;20038;-53
2022/06/21 01:11:08;;;;;;;20.83;5.30;;;18.60;99.90;;;;;;4977360;28;20047;-55
2022/06/21 01:13:38;;;;;;;21.73;5.30;;;18.50;99.90;;;;;;4978420;28;20097;-54
2022/06/21 01:16:05;;;;;;;16.55;4.53;;;18.40;99.90;;;;;;4982270;28;20038;-51
2022/06/21 01:18:31;;;;;;;14.23;4.30;;;18.50;99.90;;;;;;4981770;28;20031;-54
2022/06/21 01:20:59;;;;;;;16.30;4.43;;;18.80;99.90;;;;;;4981858;28;20057;-54
2022/06/21 01:24:12;;;;;;;20.23;5.10;;;18.40;99.90;;;;;;4977771;28;20034;-52
2022/06/21 01:26:55;;;;;;;22.23;5.32;;;18.20;99.90;;;;;;4917932;29;20141;-55
2022/06/21 01:29:25;;;;;;;21.73;5.53;;;18.30;99.90;;;;;;4932477;28;20123;-55
2022/06/21 01:31:51;;;;;;;20.80;5.28;;;18.40;99.90;;;;;;4929335;29;20135;-55
2022/06/21 01:34:24;;;;;;;18.98;5.25;;;18.30;99.90;;;;;;4932611;29;20027;-54
2022/06/21 01:37:10;;;;;;;21.65;5.18;;;18.30;99.90;;;;;;4932211;29;20095;-55
2022/06/21 01:39:50;;;;;;;28.08;5.85;;;18.10;99.90;;;;;;4928292;29;20422;-55
2022/06/21 01:42:27;;;;;;;21.20;5.70;;;18.00;99.90;;;;;;4928128;29;20134;-55
2022/06/21 01:44:55;;;;;;;24.83;5.65;;;18.10;99.90;;;;;;4928529;29;20067;-55
2022/06/21 01:47:25;;;;;;;23.67;5.43;;;18.00;99.90;;;;;;4916974;29;20031;-54
2022/06/21 01:49:56;;;;;;;28.60;6.18;;;18.00;99.90;;;;;;4928809;29;20054;-54
2022/06/21 01:52:24;;;;;;;27.00;6.10;;;17.80;99.90;;;;;;4932267;29;20039;-53
2022/06/21 01:54:56;;;;;;;27.50;6.25;;;17.90;99.90;;;;;;4927873;29;20452;-55
2022/06/21 01:57:23;;;;;;;18.80;5.40;;;17.90;99.90;;;;;;4928070;29;20052;-50
2022/06/21 01:59:51;;;;;;;21.40;5.85;;;17.90;99.90;;;;;;4929088;29;20110;-54
2022/06/21 02:02:29;;;;;;;18.40;5.40;;;17.90;99.90;;;;;;4963132;28;20046;-49
2022/06/21 02:05:12;;;;;;;22.63;5.78;;;17.90;99.90;;;;;;4988920;28;20109;-55
2022/06/21 02:07:48;;;;;;;15.20;4.75;;;18.00;99.90;;;;;;4977552;28;20034;-54
2022/06/21 02:10:25;;;;;;;24.45;5.90;;;18.10;99.90;;;;;;4981004;28;20507;-56
2022/06/21 02:12:59;;;;;;;27.20;5.70;;;18.10;99.90;;;;;;4981388;28;20035;-57
2022/06/21 02:15:33;;;;;;;24.10;6.00;;;17.90;99.90;;;;;;4981470;28;20049;-54
2022/06/21 02:18:01;;;;;;;25.45;5.85;;;17.80;99.90;;;;;;4981230;28;20022;-55
2022/06/21 02:20:35;;;;;;;23.15;5.63;;;18.10;99.90;;;;;;4977147;28;20466;-54
2022/06/21 02:23:02;;;;;;;23.83;5.82;;;18.10;99.90;;;;;;4976496;28;20022;-53
2022/06/21 02:25:28;;;;;;;23.52;6.15;;;18.10;99.90;;;;;;4980136;28;20110;-54
2022/06/21 02:28:00;;;;;;;22.65;6.30;;;17.80;99.90;;;;;;4981388;28;20425;-52
2022/06/21 02:30:27;;;;;;;24.15;5.68;;;17.80;99.90;;;;;;4980853;28;20404;-54
2022/06/21 02:32:55;;;;;;;27.38;6.32;;;17.90;99.90;;;;;;4980620;28;20029;-55
2022/06/21 02:35:37;;;;;;;24.05;7.07;;;17.70;99.90;;;;;;4976527;28;20034;-56
2022/06/21 02:38:09;;;;;;;23.63;5.85;;;17.70;99.90;;;;;;4989872;28;20038;-55
2022/06/21 02:40:40;;;;;;;17.33;5.50;;;17.60;99.90;;;;;;4977513;28;20122;-55
2022/06/21 02:43:14;;;;;;;20.52;5.80;;;18.20;99.90;;;;;;4980907;28;20023;-51
2022/06/21 02:45:53;;;;;;;20.02;6.50;;;18.20;99.90;;;;;;4980631;28;20658;-54
2022/06/21 02:48:27;;;;;;;26.70;6.90;;;18.00;99.90;;;;;;4980316;28;20035;-55
2022/06/21 02:51:02;;;;;;;21.52;6.40;;;17.80;99.90;;;;;;4980568;28;20022;-55
2022/06/21 02:53:30;;;;;;;22.70;6.35;;;17.90;99.90;;;;;;4976654;28;20057;-52
2022/06/21 02:56:21;;;;;;;25.23;6.60;;;17.60;99.90;;;;;;4988630;28;20051;-55
2022/06/21 02:58:51;;;;;;;30.15;6.90;;;17.60;99.90;;;;;;4989589;28;20085;-55
2022/06/21 03:01:35;;;;;;;22.73;6.80;;;17.60;99.90;;;;;;4990962;28;20188;-55
2022/06/21 03:04:01;;;;;;;22.73;7.00;;;17.60;99.90;;;;;;4990698;28;20022;-56
2022/06/21 03:06:29;;;;;;;22.83;6.40;;;17.50;99.90;;;;;;4991104;28;20099;-54
2022/06/21 03:09:09;;;;;;;22.35;6.90;;;17.70;99.90;;;;;;4980185;28;20046;-56
2022/06/21 03:11:38;;;;;;;25.63;6.30;;;17.80;99.90;;;;;;4993623;28;20052;-54
2022/06/21 03:14:07;;;;;;;20.88;6.95;;;18.30;99.90;;;;;;4993179;28;20065;-52
2022/06/21 03:16:34;;;;;;;23.90;7.15;;;18.00;99.90;;;;;;4980364;28;20127;-55
2022/06/21 03:19:05;;;;;;;24.08;6.50;;;17.80;99.90;;;;;;4984010;28;20097;-54
2022/06/21 03:21:36;;;;;;;19.30;6.13;;;17.70;99.90;;;;;;4982276;28;20026;-53
2022/06/21 03:24:06;;;;;;;21.48;6.38;;;17.90;99.90;;;;;;4990892;28;20115;-55
2022/06/21 03:26:33;;;;;;;22.08;6.82;;;18.30;99.90;;;;;;4993899;28;20165;-55
2022/06/21 03:28:59;;;;;;;23.83;7.25;;;18.20;99.90;;;;;;4992018;28;20038;-55
2022/06/21 03:31:29;;;;;;;27.70;7.13;;;18.10;99.90;;;;;;4990816;28;20057;-55
2022/06/21 03:34:06;;;;;;;25.77;6.95;;;18.10;99.90;;;;;;4986835;28;20042;-55
2022/06/21 03:36:32;;;;;;;26.63;7.45;;;18.00;99.90;;;;;;4983808;28;20050;-51
2022/06/21 03:39:05;;;;;;;19.50;5.68;;;17.90;99.90;;;;;;4993458;28;20061;-55
2022/06/21 03:41:43;;;;;;;23.85;6.80;;;18.40;99.90;;;;;;4980666;28;20030;-55
2022/06/21 03:44:33;;;;;;;26.17;6.50;;;18.50;99.90;;;;;;4978998;28;20062;-55
2022/06/21 03:47:08;;;;;;;16.98;5.68;;;18.60;99.90;;;;;;4991624;28;20396;-56
2022/06/21 03:49:47;;;;;;;16.88;5.60;;;19.00;99.90;;;;;;4980177;28;20042;-55
2022/06/21 03:52:41;;;;;;;20.33;5.43;;;19.70;99.90;;;;;;4983513;28;20018;-55
2022/06/21 03:55:11;;;;;;;17.45;5.95;;;20.00;99.90;;;;;;4983234;28;20496;-55
2022/06/21 03:57:43;;;;;;;14.10;4.70;;;19.50;99.90;;;;;;4983269;28;20035;-55
2022/06/21 04:00:12;;;;;;;21.95;6.25;;;19.90;99.90;;;;;;4983596;28;20010;-55
2022/06/21 04:02:41;;;;;;;14.88;5.70;;;19.40;99.90;;;;;;4981167;28;20026;-55
2022/06/21 04:05:19;;;;;;;20.33;5.90;;;19.20;99.90;;;;;;4978808;28;20026;-55
2022/06/21 04:08:00;;;;;;;15.63;5.38;;;19.40;99.90;;;;;;4979596;28;20061;-51
2022/06/21 04:10:37;;;;;;;14.32;4.68;;;19.70;99.90;;;;;;4988351;28;20415;-56
2022/06/21 04:13:23;;;;;;;20.55;5.95;;;19.90;99.90;;;;;;4985054;28;20105;-55
2022/06/21 04:16:02;;;;;;;16.52;5.13;;;19.40;99.90;;;;;;4982551;28;20458;-56
2022/06/21 04:18:39;;;;;;;18.88;5.90;;;19.60;99.90;;;;;;4983051;28;20090;-55
2022/06/21 04:21:20;;;;;;;18.90;5.50;;;20.00;99.90;;;;;;4983045;28;20054;-55
2022/06/21 04:23:58;;;;;;;17.05;4.82;;;19.70;99.90;;;;;;4982249;28;20030;-55
2022/06/21 04:26:34;;;;;;;21.05;5.72;;;19.70;99.90;;;;;;4978578;28;20034;-56
2022/06/21 04:28:59;;;;;;;19.35;5.93;;;19.40;99.90;;;;;;4990815;28;20042;-56
2022/06/21 04:31:38;;;;;;;16.63;5.47;;;19.10;99.90;;;;;;4990041;28;20507;-55
2022/06/21 04:34:28;;;;;;;11.82;4.60;;;19.10;99.90;;;;;;4989383;28;20034;-56
2022/06/21 04:36:58;;;;;;;21.42;6.13;;;19.40;99.90;;;;;;4989179;28;20026;-52
2022/06/21 04:39:53;;;;;;;25.67;6.53;;;19.50;99.90;;;;;;4989425;28;20037;-55
2022/06/21 04:43:02;;;;;;;25.67;7.50;;;18.70;99.90;;;;;;4989605;28;20018;-54
2022/06/21 04:45:43;;;;;;;24.15;7.15;;;18.20;99.90;;;;;;4928494;29;20533;-56
2022/06/21 04:48:26;;;;;;;20.83;7.75;;;18.10;99.90;;;;;;4929303;29;20043;-54
2022/06/21 04:51:21;;;;;;;19.02;7.43;;;18.00;99.90;;;;;;4933124;29;20048;-56
2022/06/21 04:54:02;;;;;;;27.63;7.80;;;18.10;99.90;;;;;;4847966;29;20129;-55
2022/06/21 04:56:59;;;;;;;20.60;6.75;;;18.30;99.90;;;;;;4859376;29;20479;-56
2022/06/21 04:59:39;;;;;;;22.88;6.95;;;18.50;99.90;;;;;;4829689;29;20033;-55
2022/06/21 05:02:10;;;;;;;19.90;7.57;;;18.60;99.90;;;;;;4859394;29;20439;-55
2022/06/21 05:04:40;;;;;;;23.60;7.53;;;18.60;99.90;;;;;;4857201;29;20093;-55
2022/06/21 05:07:17;;;;;;;25.35;8.45;;;18.40;99.90;;;;;;4859109;29;20033;-52
2022/06/21 05:09:43;;;;;;;26.80;8.80;;;18.40;99.90;;;;;;4859312;29;20046;-55
2022/06/21 05:12:15;;;;;;;18.05;7.90;;;18.50;99.90;;;;;;4859251;29;20038;-51
2022/06/21 05:14:46;;;;;;;20.08;6.75;;;18.80;99.90;;;;;;4859222;29;20033;-55
2022/06/21 05:17:16;;;;;;;18.20;6.97;;;19.30;99.90;;;;;;4928637;29;20036;-55
2022/06/21 05:19:47;;;;;;;26.77;7.85;;;19.60;99.90;;;;;;4919356;29;20036;-55
2022/06/21 05:22:16;;;;;;;19.15;6.75;;;20.00;99.90;;;;;;4921989;29;20044;-55
2022/06/21 05:24:42;;;;;;;21.20;6.70;;;19.80;99.90;;;;;;4922035;29;20036;-55
2022/06/21 05:27:13;;;;;;;19.55;7.10;;;19.40;99.90;;;;;;4921605;29;20039;-53
2022/06/21 05:29:55;;;;;;;15.60;5.53;;;19.50;99.90;;;;;;4925072;28;20039;-53
2022/06/21 05:32:27;;;;;;;11.38;4.47;;;20.90;99.90;;;;;;4977338;28;20034;-56
2022/06/21 05:34:57;;;;;;;11.48;4.72;;;23.00;99.90;;;;;;4989401;28;20038;-55
2022/06/21 05:37:31;;;;;;;13.05;6.25;;;23.10;99.90;;;;;;4988469;28;20049;-53
2022/06/21 05:40:02;;;;;;;12.73;4.70;;;22.70;99.90;;;;;;4988376;28;20025;-55
2022/06/21 05:42:28;;;;;;;13.73;4.85;;;23.20;99.90;;;;;;4987954;28;20392;-54
2022/06/21 05:45:19;;;;;;;14.65;5.60;;;23.00;99.90;;;;;;4981394;28;20122;-55
2022/06/21 05:47:55;;;;;;;14.00;5.85;;;22.70;99.90;;;;;;4976529;28;20042;-56
2022/06/21 05:50:28;;;;;;;11.20;4.82;;;22.60;99.90;;;;;;4977279;28;20092;-54
2022/06/21 05:52:57;;;;;;;11.25;5.10;;;22.90;99.90;;;;;;4988715;28;20467;-51
2022/06/21 05:55:32;;;;;;;15.45;5.50;;;22.60;99.90;;;;;;4980729;28;20093;-53
2022/06/21 05:58:05;;;;;;;15.70;5.88;;;22.70;99.90;;;;;;4981385;28;20027;-54
2022/06/21 06:00:40;;;;;;;16.88;5.60;;;23.00;99.90;;;;;;4981347;28;20027;-55
2022/06/21 06:03:11;;;;;;;13.13;5.35;;;23.00;99.90;;;;;;4981243;28;20109;-55
2022/06/21 06:05:38;;;;;;;11.07;4.90;;;22.90;99.90;;;;;;4978778;28;20448;-56
2022/06/21 06:08:10;;;;;;;13.98;5.65;;;22.80;99.90;;;;;;4976605;28;20519;-56
2022/06/21 06:10:38;;;;;;;10.40;5.30;;;23.10;99.90;;;;;;4977300;28;20118;-55
2022/06/21 06:13:10;;;;;;;13.95;5.35;;;23.50;99.90;;;;;;4981415;28;20038;-55
2022/06/21 06:15:42;;;;;;;14.35;5.13;;;24.20;99.90;;;;;;4981068;28;20022;-55
2022/06/21 06:18:19;;;;;;;16.15;5.60;;;24.40;99.90;;;;;;4981156;28;20022;-56
2022/06/21 06:20:52;;;;;;;14.85;5.50;;;24.40;99.90;;;;;;4982243;28;20023;-56
2022/06/21 06:23:29;;;;;;;16.17;6.23;;;25.30;99.90;;;;;;4976259;28;20053;-56
2022/06/21 06:26:05;;;;;;;16.45;5.78;;;24.70;99.90;;;;;;4988485;28;20288;-56
2022/06/21 06:29:04;;;;;;;21.05;6.10;;;24.50;99.90;;;;;;4988080;28;20414;-52
2022/06/21 06:31:38;;;;;;;16.13;5.82;;;24.80;99.90;;;;;;4987728;28;20043;-54
2022/06/21 06:34:09;;;;;;;18.85;5.63;;;24.40;99.90;;;;;;4991143;28;20030;-55
2022/06/21 06:36:40;;;;;;;16.50;5.78;;;24.00;99.90;;;;;;4991309;28;20451;-54
2022/06/21 06:39:25;;;;;;;17.95;5.97;;;23.80;99.90;;;;;;4991689;28;20042;-55
2022/06/21 06:42:07;;;;;;;17.92;5.43;;;23.70;99.90;;;;;;4992259;28;20027;-55
2022/06/21 06:44:41;;;;;;;15.23;5.88;;;23.60;99.90;;;;;;4980640;28;20036;-53
2022/06/21 06:47:14;;;;;;;15.38;5.47;;;24.00;99.90;;;;;;4994032;28;20042;-55
2022/06/21 06:49:46;;;;;;;14.75;5.78;;;24.20;99.90;;;;;;4981094;28;20070;-55
2022/06/21 06:52:24;;;;;;;12.75;5.68;;;26.50;99.90;;;;;;4984504;28;20037;-54
2022/06/21 06:54:55;;;;;;;12.07;5.88;;;27.30;99.90;;;;;;4984120;28;20030;-56
2022/06/21 06:57:47;;;;;;;12.90;5.68;;;27.50;99.90;;;;;;4984321;28;20058;-55
2022/06/21 07:00:18;;;;;;;10.38;5.40;;;26.70;99.90;;;;;;4984524;28;20022;-56
2022/06/21 07:03:08;;;;;;;11.05;5.43;;;25.40;99.90;;;;;;4982641;28;20565;-56
2022/06/21 07:05:40;;;;;;;12.68;5.35;;;24.70;99.90;;;;;;4980009;28;20503;-56
2022/06/21 07:08:13;;;;;;;12.00;5.03;;;24.10;99.90;;;;;;4993132;28;20023;-56
2022/06/21 07:10:40;;;;;;;12.52;5.65;;;23.90;99.90;;;;;;4980758;28;20035;-56
2022/06/21 07:13:08;;;;;;;11.60;5.63;;;23.90;99.90;;;;;;4984151;28;20027;-56
2022/06/21 07:15:39;;;;;;;12.70;5.38;;;23.80;99.90;;;;;;4984078;28;20039;-55
2022/06/21 07:18:13;;;;;;;15.80;5.78;;;24.10;99.90;;;;;;4984088;28;20114;-56
2022/06/21 07:20:43;;;;;;;9.18;4.47;;;25.20;99.90;;;;;;4982300;28;20372;-56
2022/06/21 07:23:29;;;;;;;9.95;4.80;;;25.30;99.90;;;;;;4979314;28;20061;-56
2022/06/21 07:26:10;;;;;;;9.23;4.55;;;25.50;99.90;;;;;;4991986;28;20022;-55
2022/06/21 07:28:42;;;;;;;10.27;4.40;;;25.50;99.90;;;;;;4980246;28;20098;-56
2022/06/21 07:31:18;;;;;;;14.80;4.30;;;25.30;99.90;;;;;;4983860;28;20503;-56
2022/06/21 07:33:58;;;;;;;8.05;4.07;;;25.20;99.90;;;;;;4983453;28;20408;-56
2022/06/21 07:36:57;;;;;;;11.23;4.30;;;25.10;99.90;;;;;;4984029;28;20039;-56
2022/06/21 07:39:35;;;;;;;11.63;4.13;;;24.80;99.90;;;;;;4983865;28;20443;-56
2022/06/21 07:42:12;;;;;;;11.20;4.55;;;24.60;99.90;;;;;;4983811;28;20026;-56
2022/06/21 07:45:04;;;;;;;9.50;4.38;;;24.60;99.90;;;;;;4991723;28;20038;-56
2022/06/21 07:47:40;;;;;;;10.15;4.20;;;25.00;99.90;;;;;;4993631;28;20438;-56
2022/06/21 07:50:19;;;;;;;10.50;4.38;;;26.80;99.90;;;;;;4980719;28;20065;-56
2022/06/21 07:52:59;;;;;;;7.75;3.63;;;28.50;99.90;;;;;;4979646;28;20089;-56
2022/06/21 07:55:43;;;;;;;10.85;4.15;;;27.40;99.90;;;;;;4989316;28;20537;-57
2022/06/21 07:58:21;;;;;;;8.10;3.47;;;26.80;99.90;;;;;;4990027;28;20042;-56
2022/06/21 08:06:41;;;;;;;10.43;3.92;;;29.70;99.90;;;;;;4987107;28;20418;-51
2022/06/21 08:09:37;;;;;;;11.00;3.80;;;30.70;99.90;;;;;;4989552;28;20034;-55
2022/06/21 08:12:03;;;;;;;10.25;3.80;;;31.70;99.90;;;;;;4990182;28;20031;-56
2022/06/21 08:14:33;;;;;;;7.78;3.70;;;32.40;98.70;;;;;;4982736;28;20458;-57
2022/06/21 08:17:10;;;;;;;8.93;3.58;;;33.30;97.80;;;;;;4978647;28;20031;-56
2022/06/21 08:19:53;;;;;;;7.85;3.97;;;31.70;98.70;;;;;;4979754;28;20100;-56
2022/06/21 08:22:40;;;;;;;12.15;4.05;;;30.90;99.90;;;;;;4982783;28;20431;-57
2022/06/21 08:25:32;;;;;;;8.15;3.72;;;30.60;99.90;;;;;;4983076;28;20407;-57
2022/06/21 08:28:14;;;;;;;8.77;4.07;;;30.70;99.90;;;;;;4983216;28;20022;-57
2022/06/21 08:30:45;;;;;;;9.55;4.10;;;32.10;99.20;;;;;;4982904;28;20043;-56
2022/06/21 08:33:39;;;;;;;10.82;3.95;;;32.70;97.70;;;;;;4982665;28;20050;-56
2022/06/21 08:36:17;;;;;;;8.73;4.05;;;32.80;97.50;;;;;;4974485;28;20034;-56
2022/06/21 08:39:07;;;;;;;9.93;4.22;;;32.60;97.00;;;;;;4978124;28;20088;-55
2022/06/21 08:42:10;;;;;;;8.15;3.60;;;31.70;97.80;;;;;;4969547;28;20392;-57
2022/06/21 08:48:19;;;;;;;7.30;3.50;;;33.70;96.50;;;;;;4983754;28;20404;-56
2022/06/21 08:50:54;;;;;;;9.77;3.58;;;31.30;97.90;;;;;;4990276;28;20411;-56
2022/06/21 08:53:26;;;;;;;6.68;3.30;;;30.70;99.10;;;;;;4993161;28;20092;-57
2022/06/21 08:56:04;;;;;;;9.98;3.83;;;32.40;97.00;;;;;;4989098;28;20529;-57
2022/06/21 08:58:47;;;;;;;12.80;4.22;;;33.40;96.60;;;;;;4988871;28;20030;-57
2022/06/21 09:01:23;;;;;;;9.15;3.30;;;32.40;97.10;;;;;;4982768;28;20038;-56
2022/06/21 09:04:07;;;;;;;21.08;4.22;;;31.60;97.30;;;;;;4982216;28;20098;-56
2022/06/21 09:06:54;;;;;;;13.48;3.78;;;29.80;99.10;;;;;;4981874;28;20115;-57
2022/06/21 09:09:31;;;;;;;7.68;3.42;;;28.70;99.90;;;;;;4981894;28;20523;-57
2022/06/21 09:12:31;;;;;;;10.18;3.75;;;30.90;98.60;;;;;;4977513;28;20503;-56
2022/06/21 09:15:22;;;;;;;10.18;3.42;;;30.80;98.60;;;;;;4988883;28;20034;-57
2022/06/21 09:18:14;;;;;;;12.15;3.63;;;31.30;97.80;;;;;;4983641;28;20034;-57
2022/06/21 09:20:55;;;;;;;8.90;3.53;;;30.10;99.00;;;;;;4990519;28;20092;-57
2022/06/21 09:23:51;;;;;;;8.48;3.40;;;30.00;98.50;;;;;;4991296;28;20530;-57
2022/06/21 09:26:41;;;;;;;5.22;3.00;;;30.30;98.50;;;;;;4986185;28;20080;-57
2022/06/21 09:29:36;;;;;;;7.38;3.33;;;32.90;96.40;;;;;;4982526;28;20535;-57
2022/06/21 09:32:40;;;;;;;5.97;2.85;;;34.30;94.40;;;;;;4970265;28;20062;-57
2022/06/21 09:35:15;;;;;;;9.82;3.03;;;33.90;95.00;;;;;;4932986;29;20044;-57
2022/06/21 09:37:50;;;;;;;5.90;2.90;;;33.70;94.20;;;;;;4944001;29;20039;-57
2022/06/21 09:40:26;;;;;;;9.60;3.10;;;33.30;95.10;;;;;;4932748;29;20032;-57
2022/06/21 09:42:57;;;;;;;8.95;3.13;;;31.70;96.40;;;;;;4937966;29;20032;-57
2022/06/21 09:45:28;;;;;;;6.10;3.05;;;30.30;98.00;;;;;;4932351;29;20509;-57
2022/06/21 09:48:17;;;;;;;9.18;3.10;;;30.30;98.40;;;;;;4941294;29;20091;-57
2022/06/21 09:51:07;;;;;;;9.63;3.42;;;29.50;98.90;;;;;;4937695;28;20051;-56
2022/06/21 09:53:58;;;;;;;7.43;3.30;;;30.10;98.70;;;;;;4934934;29;20115;-57
2022/06/21 09:56:42;;;;;;;8.95;3.03;;;29.90;99.00;;;;;;4942268;29;20048;-57
2022/06/21 09:59:18;;;;;;;9.60;3.05;;;30.30;98.80;;;;;;4931097;29;20492;-57
2022/06/21 10:02:08;;;;;;;8.88;3.10;;;31.20;98.00;;;;;;4941221;29;20112;-56
2022/06/21 10:05:03;;;;;;;7.93;3.30;;;31.10;96.90;;;;;;4944123;29;20035;-57
2022/06/21 10:07:36;;;;;;;5.80;2.80;;;29.20;98.90;;;;;;4938759;29;20484;-57
2022/06/21 10:10:38;;;;;;;7.40;3.07;;;28.50;99.90;;;;;;4936007;28;20062;-57
2022/06/21 10:13:16;;;;;;;6.60;2.80;;;29.30;99.60;;;;;;4978508;28;20042;-57
2022/06/21 10:15:58;;;;;;;5.88;2.72;;;30.10;98.40;;;;;;4987341;28;20053;-56
2022/06/21 10:18:57;;;;;;;7.05;3.00;;;30.10;97.60;;;;;;4987886;28;20027;-57
2022/06/21 10:21:41;;;;;;;6.97;3.08;;;29.70;98.40;;;;;;4981535;28;20062;-57
2022/06/21 10:24:26;;;;;;;5.72;2.92;;;28.80;99.60;;;;;;4980872;28;20435;-56
2022/06/21 10:27:23;;;;;;;7.10;2.90;;;28.00;99.90;;;;;;4980128;28;20101;-57
2022/06/21 10:30:22;;;;;;;8.32;3.10;;;28.50;99.90;;;;;;4976343;28;20066;-56
2022/06/21 10:33:02;;;;;;;6.35;3.30;;;28.00;99.90;;;;;;4976074;28;20027;-57
2022/06/21 10:35:43;;;;;;;6.82;3.38;;;28.80;99.50;;;;;;4976843;28;20047;-57
2022/06/21 10:38:27;;;;;;;8.98;3.40;;;29.00;99.70;;;;;;4990106;28;20511;-57
2022/06/21 10:41:10;;;;;;;8.05;3.40;;;29.80;98.80;;;;;;4988394;28;20037;-57
2022/06/21 10:44:04;;;;;;;10.88;3.90;;;29.70;98.80;;;;;;4975685;28;20043;-57
2022/06/21 10:46:36;;;;;;;7.18;3.60;;;29.50;99.10;;;;;;4987375;28;20088;-57
2022/06/21 10:49:14;;;;;;;10.20;3.28;;;29.60;99.10;;;;;;4986923;28;20038;-57
2022/06/21 10:51:58;;;;;;;8.05;3.22;;;29.90;98.70;;;;;;4986467;28;20034;-57
2022/06/21 10:54:52;;;;;;;7.30;3.05;;;29.40;99.10;;;;;;4988594;28;20113;-57
2022/06/21 10:57:43;;;;;;;8.23;3.22;;;29.20;98.90;;;;;;4985937;28;20038;-56
2022/06/21 11:03:34;;;;;;;8.20;2.90;;;29.40;98.70;;;;;;4984194;28;20045;-56
2022/06/21 11:06:09;;;;;;;8.63;3.10;;;29.70;98.90;;;;;;4983663;28;20077;-57
2022/06/21 11:09:14;;;;;;;7.82;3.10;;;30.10;97.90;;;;;;4981323;28;20106;-56
2022/06/21 11:11:47;;;;;;;6.97;3.20;;;29.60;98.70;;;;;;4982026;28;20412;-56
2022/06/21 11:14:33;;;;;;;9.00;3.40;;;29.50;99.00;;;;;;4981113;28;20112;-55
2022/06/21 11:17:19;;;;;;;7.55;3.38;;;29.60;98.70;;;;;;4981802;28;20446;-56
2022/06/21 11:20:22;;;;;;;6.88;3.05;;;29.90;98.70;;;;;;4983218;28;20031;-56
2022/06/21 11:23:20;;;;;;;9.57;3.50;;;29.90;98.10;;;;;;4981145;28;20043;-57
2022/06/21 11:25:52;;;;;;;8.15;3.17;;;30.30;98.20;;;;;;4982518;28;20081;-57
2022/06/21 11:29:00;;;;;;;7.18;3.25;;;30.30;98.20;;;;;;4983638;28;20030;-57
2022/06/21 11:31:37;;;;;;;7.25;3.08;;;29.50;98.70;;;;;;4914034;29;20036;-57
2022/06/21 11:34:40;;;;;;;6.20;3.17;;;29.40;98.90;;;;;;4915768;29;20044;-57
2022/06/21 11:37:43;;;;;;;7.40;2.65;;;29.90;98.70;;;;;;4911040;29;20028;-57
2022/06/21 11:40:29;;;;;;;12.85;6.78;;;29.80;98.80;;;;;;4915275;29;20451;-57
2022/06/21 11:42:58;;;;;;;39.67;32.22;;;29.70;98.50;;;;;;4914551;29;20040;-56
2022/06/21 11:45:41;;;;;;;20.08;16.75;;;29.40;99.00;;;;;;4914572;29;20059;-57
2022/06/21 11:48:23;;;;;;;17.30;13.52;;;29.50;99.00;;;;;;4913388;29;20573;-57
2022/06/21 11:50:57;;;;;;;7.47;5.15;;;29.60;98.80;;;;;;4911958;29;20497;-57
2022/06/21 11:53:44;;;;;;;9.63;4.40;;;28.80;99.30;;;;;;4915279;29;20035;-56
2022/06/21 11:56:19;;;;;;;10.85;6.20;;;28.70;99.80;;;;;;4913122;29;20516;-56
2022/06/21 11:59:01;;;;;;;9.00;4.57;;;28.60;99.40;;;;;;4914954;29;20036;-56
2022/06/21 12:01:47;;;;;;;9.65;4.10;;;28.50;99.70;;;;;;4899054;29;20042;-56
2022/06/21 12:04:37;;;;;;;9.25;3.92;;;28.60;99.80;;;;;;4914341;29;20032;-57
2022/06/21 12:07:03;;;;;;;6.55;3.75;;;28.90;99.50;;;;;;4913584;29;20036;-57
2022/06/21 12:09:46;;;;;;;6.75;3.47;;;29.10;99.30;;;;;;4976675;28;20050;-56
2022/06/21 12:12:25;;;;;;;9.55;3.70;;;29.20;98.90;;;;;;4988619;28;20026;-57
2022/06/21 12:15:18;;;;;;;7.25;3.45;;;29.40;99.10;;;;;;4978279;28;20035;-57
2022/06/21 12:18:18;;;;;;;6.82;3.25;;;29.10;99.30;;;;;;4978457;28;20113;-56
2022/06/21 12:21:03;;;;;;;6.20;2.92;;;28.90;99.80;;;;;;4978277;28;20565;-57
2022/06/21 12:23:47;;;;;;;7.85;3.20;;;29.60;99.10;;;;;;4979099;28;20034;-57
2022/06/21 12:26:19;;;;;;;5.88;2.90;;;29.00;99.70;;;;;;4992169;28;20034;-57
2022/06/21 12:28:45;;;;;;;7.20;3.25;;;29.10;99.90;;;;;;4989306;28;20034;-57
2022/06/21 12:31:23;;;;;;;6.63;3.08;;;29.70;99.00;;;;;;4986745;28;20034;-57
2022/06/21 12:33:54;;;;;;;5.35;3.00;;;28.80;99.50;;;;;;4983797;28;20476;-56
2022/06/21 12:36:31;;;;;;;6.75;2.83;;;29.00;99.10;;;;;;4982644;28;20042;-57
2022/06/21 12:39:36;;;;;;;6.95;3.33;;;29.00;98.80;;;;;;4982445;28;20023;-57
2022/06/21 12:42:32;;;;;;;5.85;3.05;;;28.80;99.10;;;;;;4924731;29;20038;-53
2022/06/21 12:45:19;;;;;;;5.22;2.83;;;28.20;99.40;;;;;;4924377;29;20075;-57
2022/06/21 12:48:04;;;;;;;9.43;3.83;;;27.90;99.90;;;;;;4926968;29;20693;-52
2022/06/21 12:50:46;;;;;;;8.65;3.42;;;27.30;99.90;;;;;;4923152;29;20576;-54
2022/06/21 12:53:15;;;;;;;5.70;3.15;;;27.20;99.90;;;;;;4915517;29;20024;-55
2022/06/21 12:56:14;;;;;;;8.45;3.45;;;27.60;99.90;;;;;;4923136;29;20059;-55
2022/06/21 12:59:18;;;;;;;8.02;3.03;;;27.40;99.90;;;;;;4924394;29;20044;-55
2022/06/21 13:01:48;;;;;;;6.75;3.10;;;27.80;99.90;;;;;;4922338;29;20183;-55
2022/06/21 13:04:52;;;;;;;6.40;3.03;;;27.60;99.90;;;;;;4925301;29;20048;-55
2022/06/21 13:07:37;;;;;;;;;;;27.50;99.90;;;;;;4924719;29;20042;-56
2022/06/21 13:10:15;;;;;;;6.47;2.83;;;27.50;99.90;;;;;;4920224;28;19925;-54
2022/06/21 13:13:09;;;;;;;5.78;2.83;;;27.80;99.90;;;;;;4927324;29;20046;-53
2022/06/21 13:16:03;;;;;;;6.45;3.30;;;28.00;99.90;;;;;;4925138;29;20036;-51
2022/06/21 13:18:29;;;;;;;7.30;3.15;;;28.10;99.90;;;;;;4969729;28;20499;-57
2022/06/21 13:21:14;;;;;;;8.15;3.13;;;28.20;99.90;;;;;;4980786;28;20108;-56
2022/06/21 13:23:49;;;;;;;5.18;2.90;;;28.40;99.90;;;;;;4986518;28;20027;-55
2022/06/21 13:27:02;;;;;;;7.95;3.10;;;28.00;99.90;;;;;;4981961;28;20046;-57
2022/06/21 13:30:03;;;;;;;9.13;3.40;;;28.40;99.90;;;;;;4964446;28;20046;-57
2022/06/21 13:32:33;;;;;;;5.63;3.03;;;27.70;99.90;;;;;;4977406;28;20049;-55
2022/06/21 13:35:15;;;;;;;5.80;2.95;;;28.40;99.90;;;;;;4989768;28;20445;-56
2022/06/21 13:37:47;;;;;;;11.05;3.40;;;28.10;99.90;;;;;;4977898;28;20022;-55
2022/06/21 13:40:33;;;;;;;7.07;3.27;;;28.00;99.90;;;;;;4981611;28;20451;-56
2022/06/21 13:43:08;;;;;;;5.75;3.03;;;27.60;99.90;;;;;;4981457;28;20292;-57
2022/06/21 13:45:54;;;;;;;6.30;3.17;;;27.50;99.90;;;;;;4981526;28;20023;-55
2022/06/21 13:48:33;;;;;;;7.57;3.35;;;27.90;99.90;;;;;;4981413;28;20027;-57
2022/06/21 13:51:08;;;;;;;9.73;3.30;;;27.70;99.90;;;;;;4981523;28;20033;-56